createdAt,value
2022-11-30T00:00:22.707Z,13.32
2022-11-30T00:04:34.984Z,13.23
2022-11-30T00:08:47.726Z,12.85
2022-11-30T00:12:59.999Z,12.27
2022-11-30T00:17:12.282Z,11.88
2022-11-30T00:21:24.553Z,10.70
2022-11-30T00:25:37.675Z,11.45
2022-11-30T00:29:49.938Z,11.88
2022-11-30T00:34:02.202Z,10.95
2022-11-30T00:38:14.510Z,11.48
2022-11-30T00:42:26.794Z,10.05
2022-11-30T00:46:48.864Z,11.35
2022-11-30T00:51:01.131Z,12.43
2022-11-30T00:55:13.418Z,12.00
2022-11-30T00:59:34.711Z,12.80
2022-11-30T01:03:47.032Z,11.25
2022-11-30T01:08:01.722Z,11.35
2022-11-30T01:12:13.988Z,10.75
2022-11-30T01:16:32.348Z,11.23
2022-11-30T01:20:44.939Z,13.35
2022-11-30T01:24:57.194Z,12.63
2022-11-30T01:29:09.502Z,12.20
2022-11-30T01:33:21.763Z,11.98
2022-11-30T01:37:38.935Z,11.68
2022-11-30T01:41:51.325Z,12.63
2022-11-30T01:46:03.911Z,12.73
2022-11-30T01:50:34.212Z,12.60
2022-11-30T01:54:52.839Z,12.93
2022-11-30T01:59:05.255Z,13.55
2022-11-30T02:03:40.555Z,12.13
2022-11-30T02:07:53.780Z,14.13
2022-11-30T02:12:43.218Z,14.70
2022-11-30T02:17:13.791Z,12.73
2022-11-30T02:21:48.497Z,12.88
2022-11-30T02:26:43.723Z,12.52
2022-11-30T02:31:00.040Z,14.80
2022-11-30T02:35:14.537Z,12.85
2022-11-30T02:39:26.934Z,11.85
2022-11-30T02:43:40.168Z,14.75
2022-11-30T02:48:01.753Z,12.27
2022-11-30T02:52:15.671Z,12.27
2022-11-30T02:56:28.277Z,11.68
2022-11-30T03:00:40.544Z,11.23
2022-11-30T03:04:52.857Z,11.55
2022-11-30T03:09:05.322Z,11.68
2022-11-30T03:13:17.629Z,10.57
2022-11-30T03:17:29.913Z,11.77
2022-11-30T03:21:42.213Z,10.20
2022-11-30T03:25:59.536Z,10.30
2022-11-30T03:30:22.155Z,10.25
2022-11-30T03:34:34.436Z,10.02
2022-11-30T03:38:48.393Z,9.48
2022-11-30T03:43:00.654Z,11.35
2022-11-30T03:47:12.928Z,11.82
2022-11-30T03:51:25.241Z,10.98
2022-11-30T03:55:37.550Z,11.32
2022-11-30T03:59:49.808Z,9.18
2022-11-30T04:04:02.091Z,10.20
2022-11-30T04:08:15.206Z,10.65
2022-11-30T04:12:27.478Z,9.60
2022-11-30T04:16:39.738Z,9.25
2022-11-30T04:20:59.151Z,8.00
2022-11-30T04:25:21.437Z,9.25
2022-11-30T04:29:33.678Z,9.15
2022-11-30T04:33:45.955Z,9.25
2022-11-30T04:38:04.477Z,9.17
2022-11-30T04:42:16.958Z,10.32
2022-11-30T04:46:30.283Z,9.50
2022-11-30T04:50:42.660Z,9.23
2022-11-30T04:54:55.257Z,9.70
2022-11-30T04:59:07.667Z,8.63
2022-11-30T05:03:19.906Z,8.43
2022-11-30T05:07:32.300Z,8.70
2022-11-30T05:11:44.572Z,8.65
2022-11-30T05:15:56.966Z,7.97
2022-11-30T05:20:09.660Z,9.48
2022-11-30T05:24:21.934Z,9.25
2022-11-30T05:28:34.250Z,7.88
2022-11-30T05:32:46.876Z,9.15
2022-11-30T05:37:09.155Z,8.35
2022-11-30T05:41:21.547Z,9.00
2022-11-30T05:45:33.812Z,8.60
2022-11-30T05:49:46.087Z,9.57
2022-11-30T05:53:59.658Z,8.63
2022-11-30T05:58:12.446Z,10.75
2022-11-30T06:02:28.157Z,10.07
2022-11-30T06:06:40.852Z,10.23
2022-11-30T06:11:02.561Z,9.05
2022-11-30T06:15:15.000Z,9.57
2022-11-30T06:19:27.522Z,8.70
2022-11-30T06:23:39.959Z,8.88
2022-11-30T06:27:52.497Z,9.05
2022-11-30T06:32:07.916Z,10.00
2022-11-30T06:36:23.942Z,10.38
2022-11-30T06:40:36.297Z,10.45
2022-11-30T06:44:49.719Z,11.02
2022-11-30T06:49:02.977Z,10.73
2022-11-30T06:53:15.238Z,11.02
2022-11-30T06:57:31.533Z,10.32
2022-11-30T07:01:43.765Z,10.38
2022-11-30T07:05:56.110Z,12.23
2022-11-30T07:10:09.167Z,11.23
2022-11-30T07:14:21.519Z,11.82
2022-11-30T07:18:34.692Z,13.02
2022-11-30T07:22:47.014Z,9.90
2022-11-30T07:27:01.251Z,12.10
2022-11-30T07:31:24.927Z,10.93
2022-11-30T07:35:37.273Z,11.30
2022-11-30T07:39:49.599Z,9.98
2022-11-30T07:44:01.870Z,9.93
2022-11-30T07:48:14.145Z,10.77
2022-11-30T07:52:26.400Z,11.45
2022-11-30T07:56:39.720Z,11.77
2022-11-30T08:00:52.052Z,12.15
2022-11-30T08:05:04.879Z,11.25
2022-11-30T08:09:20.717Z,11.10
2022-11-30T08:13:34.074Z,11.30
2022-11-30T08:17:46.454Z,11.18
2022-11-30T08:21:58.812Z,11.57
2022-11-30T08:26:32.527Z,11.98
2022-11-30T08:30:44.868Z,12.40
2022-11-30T08:34:57.263Z,10.23
2022-11-30T08:39:19.569Z,10.63
2022-11-30T08:43:32.525Z,9.50
2022-11-30T08:47:45.314Z,10.57
2022-11-30T08:56:29.864Z,9.50
2022-11-30T09:00:42.148Z,8.90
2022-11-30T09:04:54.800Z,10.88
2022-11-30T09:09:07.267Z,8.15
2022-11-30T09:13:19.586Z,8.82
2022-11-30T09:17:31.932Z,8.07
2022-11-30T09:21:49.766Z,7.20
2022-11-30T09:26:09.173Z,7.78
2022-11-30T09:30:21.598Z,8.48
2022-11-30T09:34:33.868Z,7.35
2022-11-30T09:38:46.748Z,5.65
2022-11-30T09:43:07.919Z,6.70
2022-11-30T09:47:34.640Z,7.13
2022-11-30T09:52:00.728Z,6.90
2022-11-30T09:56:26.150Z,7.70
2022-11-30T10:00:40.119Z,5.13
2022-11-30T10:04:52.470Z,4.65
2022-11-30T10:09:15.199Z,4.05
2022-11-30T10:14:21.984Z,4.78
2022-11-30T10:18:42.137Z,5.13
2022-11-30T10:23:11.371Z,5.28
2022-11-30T10:27:47.777Z,6.13
2022-11-30T10:32:01.649Z,5.72
2022-11-30T10:36:25.223Z,7.05
2022-11-30T10:40:45.039Z,7.10
2022-11-30T10:45:04.266Z,7.85
2022-11-30T10:53:39.154Z,8.48
2022-11-30T10:58:08.272Z,7.80
2022-11-30T11:02:39.542Z,7.68
2022-11-30T11:06:58.697Z,7.88
2022-11-30T11:11:33.535Z,7.40
2022-11-30T11:16:00.076Z,7.30
2022-11-30T11:20:33.377Z,7.70
2022-11-30T11:24:46.577Z,7.53
2022-11-30T11:29:00.360Z,6.72
2022-11-30T11:33:15.445Z,7.55
2022-11-30T11:37:31.745Z,7.53
2022-11-30T11:41:44.072Z,7.70
2022-11-30T11:45:59.862Z,7.55
2022-11-30T11:55:22.163Z,6.65
2022-11-30T12:00:02.912Z,7.97
2022-11-30T12:04:43.387Z,7.55
2022-11-30T12:09:04.221Z,7.85
2022-11-30T12:13:19.869Z,6.07
2022-11-30T12:17:38.172Z,6.53
2022-11-30T12:22:02.325Z,6.60
2022-11-30T12:26:39.376Z,5.45
2022-11-30T12:31:12.599Z,6.05
2022-11-30T12:35:43.265Z,5.50
2022-11-30T12:40:14.015Z,5.05
2022-11-30T12:44:54.127Z,5.20
2022-11-30T12:49:27.094Z,5.03
2022-11-30T12:53:50.820Z,4.70
2022-11-30T12:58:32.065Z,4.95
2022-11-30T13:02:56.345Z,5.63
2022-11-30T13:07:34.404Z,6.10
2022-11-30T13:11:54.630Z,5.90
2022-11-30T13:16:09.280Z,7.07
2022-11-30T13:20:39.728Z,6.72
2022-11-30T13:25:00.210Z,7.95
2022-11-30T13:29:17.274Z,7.28
2022-11-30T13:33:35.648Z,6.28
2022-11-30T13:38:34.604Z,6.43
2022-11-30T13:42:44.992Z,7.57
2022-11-30T13:47:03.778Z,9.05
2022-11-30T13:51:37.254Z,8.90
2022-11-30T13:55:49.774Z,9.45
2022-11-30T14:00:32.032Z,8.05
2022-11-30T14:04:48.347Z,9.00
2022-11-30T14:09:00.765Z,9.73
2022-11-30T14:13:31.390Z,9.60
2022-11-30T14:17:43.809Z,9.13
2022-11-30T14:21:57.711Z,11.20
2022-11-30T14:26:13.632Z,9.70
2022-11-30T14:30:26.076Z,10.27
2022-11-30T14:34:44.628Z,9.27
2022-11-30T14:38:57.010Z,9.13
2022-11-30T14:43:17.899Z,9.25
2022-11-30T14:47:37.258Z,9.95
2022-11-30T14:51:58.449Z,9.30
2022-11-30T14:56:49.010Z,9.45
2022-11-30T15:01:04.319Z,8.05
2022-11-30T15:05:21.551Z,9.52
2022-11-30T15:09:33.954Z,9.55
2022-11-30T15:13:49.535Z,10.40
2022-11-30T15:18:21.912Z,9.60
2022-11-30T15:22:35.039Z,9.55
2022-11-30T15:26:55.673Z,10.63
2022-11-30T15:31:11.471Z,9.60
2022-11-30T15:35:38.814Z,8.27
2022-11-30T15:40:01.687Z,9.10
2022-11-30T15:44:44.975Z,7.63
2022-11-30T15:49:07.777Z,8.18
2022-11-30T15:53:36.942Z,8.40
2022-11-30T15:58:03.710Z,8.75
2022-11-30T16:02:28.028Z,7.97
2022-11-30T16:06:48.638Z,9.07
2022-11-30T16:11:06.296Z,9.82
2022-11-30T16:15:29.682Z,8.30
2022-11-30T16:19:42.024Z,9.23
2022-11-30T16:23:54.555Z,8.10
2022-11-30T16:28:11.071Z,8.02
2022-11-30T16:32:27.803Z,8.13
2022-11-30T16:36:40.154Z,7.90
2022-11-30T16:40:54.824Z,8.23
2022-11-30T16:45:15.162Z,8.95
2022-11-30T16:49:28.749Z,8.45
2022-11-30T16:53:42.482Z,8.27
2022-11-30T16:57:56.414Z,8.07
2022-11-30T17:02:19.185Z,8.40
2022-11-30T17:06:41.536Z,7.53
2022-11-30T17:10:55.360Z,8.02
2022-11-30T17:15:12.263Z,8.02
2022-11-30T17:19:24.537Z,8.82
2022-11-30T17:23:36.794Z,9.18
2022-11-30T17:27:53.229Z,10.23
2022-11-30T17:32:05.667Z,6.88
2022-11-30T17:36:19.626Z,8.15
2022-11-30T17:40:44.750Z,9.70
2022-11-30T17:44:57.219Z,7.53
2022-11-30T17:49:09.519Z,9.00
2022-11-30T17:53:21.865Z,7.97
2022-11-30T17:57:34.204Z,8.85
2022-11-30T18:01:56.540Z,8.70
2022-11-30T18:06:08.982Z,9.20
2022-11-30T18:10:21.261Z,10.13
2022-11-30T18:14:33.536Z,10.23
2022-11-30T18:18:48.177Z,9.43
2022-11-30T18:23:01.023Z,9.57
2022-11-30T18:27:13.300Z,10.13
2022-11-30T18:31:26.537Z,10.52
2022-11-30T18:35:38.863Z,10.20
2022-11-30T18:39:51.284Z,8.95
2022-11-30T18:44:03.551Z,8.50
2022-11-30T18:48:15.862Z,9.88
2022-11-30T18:52:28.127Z,10.48
2022-11-30T18:56:40.494Z,9.32
2022-11-30T19:00:52.754Z,8.52
2022-11-30T19:05:10.399Z,10.18
2022-11-30T19:09:25.675Z,9.00
2022-11-30T19:13:38.213Z,9.85
2022-11-30T19:17:50.564Z,10.30
2022-11-30T19:22:02.866Z,9.75
2022-11-30T19:26:15.509Z,10.60
2022-11-30T19:30:28.357Z,9.18
2022-11-30T19:34:40.668Z,9.57
2022-11-30T19:38:53.684Z,9.15
2022-11-30T19:43:06.166Z,10.35
2022-11-30T19:47:18.458Z,10.15
2022-11-30T19:51:31.496Z,10.15
2022-11-30T19:55:44.109Z,10.10
2022-11-30T19:59:56.399Z,10.75
2022-11-30T20:04:08.692Z,11.52
2022-11-30T20:08:20.983Z,10.63
2022-11-30T20:12:33.320Z,11.48
2022-11-30T20:16:45.589Z,10.13
2022-11-30T20:20:57.868Z,10.63
2022-11-30T20:25:10.407Z,9.90
2022-11-30T20:29:22.718Z,10.73
2022-11-30T20:33:39.493Z,12.40
2022-11-30T20:37:51.827Z,10.95
2022-11-30T20:42:04.351Z,15.30
2022-11-30T20:46:23.924Z,11.07
2022-11-30T20:50:36.450Z,11.70
2022-11-30T20:54:49.423Z,10.68
2022-11-30T20:59:03.494Z,11.23
2022-11-30T21:03:15.878Z,10.95
2022-11-30T21:07:38.362Z,10.45
2022-11-30T21:11:50.692Z,11.57
2022-11-30T21:16:07.741Z,12.10
2022-11-30T21:20:20.047Z,12.63
2022-11-30T21:24:32.471Z,11.57
2022-11-30T21:28:46.491Z,10.18
2022-11-30T21:32:58.812Z,10.15
2022-11-30T21:37:11.802Z,12.05
2022-11-30T21:41:24.101Z,12.68
2022-11-30T21:45:36.397Z,12.00
2022-11-30T21:49:48.671Z,11.63
2022-11-30T21:54:02.812Z,12.57
2022-11-30T21:58:15.071Z,11.82
2022-11-30T22:02:27.385Z,11.90
2022-11-30T22:06:41.304Z,12.40
2022-11-30T22:10:53.941Z,12.38
2022-11-30T22:15:06.560Z,11.25
2022-11-30T22:19:19.209Z,12.35
2022-11-30T22:23:33.291Z,12.02
2022-11-30T22:27:45.567Z,11.25
2022-11-30T22:31:58.679Z,12.02
2022-11-30T22:36:23.373Z,11.15
2022-11-30T22:40:35.615Z,10.88
2022-11-30T22:44:47.986Z,11.20
2022-11-30T22:49:01.942Z,11.57
2022-11-30T22:53:14.223Z,10.27
2022-11-30T22:57:26.567Z,13.02
2022-11-30T23:01:44.722Z,12.40
2022-11-30T23:05:57.025Z,11.25
2022-11-30T23:10:10.053Z,13.82
2022-11-30T23:14:22.340Z,11.70
2022-11-30T23:18:40.725Z,14.32
2022-11-30T23:22:52.986Z,13.33
2022-11-30T23:27:05.262Z,13.48
2022-11-30T23:31:32.495Z,12.98
2022-11-30T23:35:47.623Z,13.80
2022-11-30T23:39:59.897Z,13.20
2022-11-30T23:44:12.797Z,13.40
2022-11-30T23:48:26.063Z,14.48
2022-11-30T23:52:38.352Z,13.07
2022-11-30T23:56:50.698Z,13.85
